Cache Creek, Canada
Current Conditions -  °F | °C
As of 12:00 AM on Tuesday 21 Oct 2014 (Local Time) from CYIN Reporting Station
Overcast Overcast  
Wind Chill: 40°   Ceiling: 12000
Heat Index: 45°   Visibility: 9mi
Dew Point: 36°   Wind: 9mph
Humidity: 71%   Direction: 150°SSE
Pressure: 29.64"   Gusts: NA
Location:  50.8°N, 121.32°W
Report Text: CYIN 210700Z AUTO 15008KT 9SM BKN120 OVC140 07/02 A2964 RMK SLP038 DENSITY ALT 3900FT
Loading
Personal Weather Stations






























Interactive Weather Map
Tropical Storm Tracking
New forecast layout! Learn more

10-Day Weather Forecast

Advertisements
Track Severe Weather on mobile